Time;durP1;ratioP1;P1;durP2;ratioP2;P2;SDS_P1;SDS_P2;PMS_P1;PMS_P2;Temp;Humidity;BMP_temperature;BMP_pressure;BME280_temperature;BME280_humidity;BME280_pressure;Samples;Min_cycle;Max_cycle;Signal;HPM_P1;HPM_P2
2023/07/12 00:00:46;;;;;;;;;;;26.60;56.50;;;;;;5065396;28;19917;-53
2023/07/12 00:03:12;;;;;;;;;;;26.70;56.20;;;;;;5072924;28;19930;-53
2023/07/12 00:05:38;;;;;;;;;;;26.60;56.20;;;;;;5065080;28;19913;-53
2023/07/12 00:08:03;;;;;;;;;;;26.70;56.30;;;;;;5065470;28;19913;-53
2023/07/12 00:10:29;;;;;;;;;;;26.70;56.20;;;;;;5051781;28;19921;-52
2023/07/12 00:12:55;;;;;;;;;;;26.80;56.10;;;;;;5055040;28;19923;-53
2023/07/12 00:15:21;;;;;;;;;;;26.80;55.80;;;;;;5061659;28;19912;-54
2023/07/12 00:17:47;;;;;;;;;;;26.90;55.80;;;;;;5066207;28;19916;-53
2023/07/12 00:20:19;;;;;;;;;;;27.00;55.60;;;;;;5046400;28;19920;-53
2023/07/12 00:22:45;;;;;;;;;;;27.00;55.20;;;;;;5061225;28;19920;-52
2023/07/12 00:25:11;;;;;;;;;;;26.90;55.60;;;;;;5066434;28;19999;-53
2023/07/12 00:27:36;;;;;;;;;;;26.70;56.00;;;;;;5065085;28;19963;-53
2023/07/12 00:30:08;;;;;;;;;;;26.80;55.90;;;;;;5053909;28;19996;-53
2023/07/12 00:32:33;;;;;;;;;;;26.90;55.70;;;;;;5050869;28;19967;-53
2023/07/12 00:34:59;;;;;;;;;;;27.00;55.50;;;;;;5060818;28;19920;-53
2023/07/12 00:37:24;;;;;;;;;;;27.00;55.20;;;;;;5056119;28;19924;-53
2023/07/12 00:39:50;;;;;;;;;;;26.80;55.90;;;;;;5053272;28;19920;-52
2023/07/12 00:42:18;;;;;;;;;;;26.80;56.30;;;;;;5054131;28;19916;-53
2023/07/12 00:44:47;;;;;;;;;;;26.90;56.00;;;;;;5056674;28;19923;-53
2023/07/12 00:47:13;;;;;;;;;;;26.90;56.40;;;;;;5053943;28;19943;-53
2023/07/12 00:49:39;;;;;;;;;;;26.90;56.40;;;;;;5049254;28;19917;-53
2023/07/12 00:52:11;;;;;;;;;;;26.90;56.40;;;;;;5053496;28;19963;-52
2023/07/12 00:54:56;;;;;;;;;;;26.80;56.90;;;;;;5050824;28;19920;-53
2023/07/12 00:57:25;;;;;;;;;;;26.80;57.00;;;;;;5060817;28;19955;-53
2023/07/12 00:59:50;;;;;;;;;;;26.90;56.90;;;;;;5055151;28;20419;-53
2023/07/12 01:02:16;;;;;;;;;;;26.80;57.70;;;;;;5057366;28;19917;-53
2023/07/12 01:04:43;;;;;;;;;;;26.60;58.10;;;;;;5058007;28;19924;-53
2023/07/12 01:07:08;;;;;;;;;;;26.60;58.20;;;;;;5052473;28;20396;-53
2023/07/12 01:09:34;;;;;;;;;;;26.60;58.80;;;;;;5055595;28;19942;-53
2023/07/12 01:11:59;;;;;;;;;;;26.40;59.20;;;;;;5056375;28;20444;-53
2023/07/12 01:14:25;;;;;;;;;;;26.40;59.00;;;;;;5065305;28;19912;-53
2023/07/12 01:16:51;;;;;;;;;;;26.50;59.00;;;;;;5059905;28;20345;-53
2023/07/12 01:19:16;;;;;;;;;;;26.60;58.80;;;;;;5072334;28;19959;-53
2023/07/12 01:21:43;;;;;;;;;;;26.60;58.70;;;;;;5059893;28;19913;-53
2023/07/12 01:24:08;;;;;;;;;;;26.60;59.00;;;;;;5063100;28;19913;-53
2023/07/12 01:26:35;;;;;;;;;;;26.50;59.20;;;;;;5052442;28;20296;-52
2023/07/12 01:29:01;;;;;;;;;;;26.40;59.30;;;;;;5053530;28;19917;-53
2023/07/12 01:31:26;;;;;;;;;;;26.50;59.40;;;;;;5060661;28;19913;-53
2023/07/12 01:33:52;;;;;;;;;;;26.50;59.60;;;;;;5054484;28;19912;-53
2023/07/12 01:36:17;;;;;;;;;;;26.50;58.80;;;;;;5064056;28;19916;-53
2023/07/12 01:38:43;;;;;;;;;;;26.40;59.10;;;;;;5050117;28;19920;-52
2023/07/12 01:41:08;;;;;;;;;;;26.30;59.80;;;;;;5056560;28;20357;-53
2023/07/12 01:43:34;;;;;;;;;;;26.40;59.80;;;;;;5069999;28;19923;-53
2023/07/12 01:45:59;;;;;;;;;;;26.50;59.40;;;;;;5064816;28;20293;-53
2023/07/12 01:48:24;;;;;;;;;;;26.60;59.60;;;;;;5069389;28;19943;-53
2023/07/12 01:50:50;;;;;;;;;;;26.50;59.70;;;;;;5069634;28;19920;-53
2023/07/12 01:53:15;;;;;;;;;;;26.40;60.00;;;;;;5059750;28;19924;-53
2023/07/12 01:55:41;;;;;;;;;;;26.30;60.00;;;;;;5058136;28;20393;-52
2023/07/12 01:58:07;;;;;;;;;;;26.30;60.30;;;;;;5060045;28;20384;-53
2023/07/12 02:00:32;;;;;;;;;;;26.20;60.70;;;;;;5074247;28;20002;-53
2023/07/12 02:02:58;;;;;;;;;;;26.00;61.20;;;;;;5066285;28;19962;-53
2023/07/12 02:05:24;;;;;;;;;;;25.80;62.20;;;;;;5062121;28;19923;-53
2023/07/12 02:07:52;;;;;;;;;;;25.70;62.90;;;;;;5059607;28;19923;-53
2023/07/12 02:10:18;;;;;;;;;;;25.80;62.90;;;;;;5059290;28;19912;-53
2023/07/12 02:12:44;;;;;;;;;;;25.70;62.90;;;;;;5072297;28;19923;-53
2023/07/12 02:15:10;;;;;;;;;;;25.80;62.70;;;;;;5038281;28;19908;-53
2023/07/12 02:17:35;;;;;;;;;;;25.90;62.30;;;;;;5055774;28;20290;-53
2023/07/12 02:20:01;;;;;;;;;;;26.00;62.10;;;;;;5058598;28;19917;-53
2023/07/12 02:22:28;;;;;;;;;;;26.00;62.10;;;;;;5054560;28;20007;-52
2023/07/12 02:24:53;;;;;;;;;;;25.90;62.40;;;;;;5059547;28;19913;-53
2023/07/12 02:27:19;;;;;;;;;;;25.90;62.30;;;;;;5074106;28;20007;-53
2023/07/12 02:29:44;;;;;;;;;;;25.90;62.00;;;;;;5071766;28;19916;-53
2023/07/12 02:32:10;;;;;;;;;;;26.10;61.80;;;;;;5056782;28;19912;-53
2023/07/12 02:34:35;;;;;;;;;;;26.20;61.40;;;;;;5055175;28;19913;-53
2023/07/12 02:37:00;;;;;;;;;;;26.20;61.10;;;;;;5054426;28;19917;-53
2023/07/12 02:39:26;;;;;;;;;;;26.30;60.30;;;;;;5053007;28;19916;-53
2023/07/12 02:41:51;;;;;;;;;;;26.40;60.50;;;;;;5056276;28;19913;-53
2023/07/12 02:44:17;;;;;;;;;;;26.20;61.00;;;;;;5055378;28;20388;-53
2023/07/12 02:46:42;;;;;;;;;;;26.20;61.30;;;;;;5061222;28;20373;-53
2023/07/12 02:49:08;;;;;;;;;;;26.10;61.30;;;;;;5054911;28;20471;-53
2023/07/12 02:51:33;;;;;;;;;;;26.10;61.30;;;;;;5054660;28;20297;-52
2023/07/12 02:53:58;;;;;;;;;;;26.20;61.00;;;;;;5057311;28;20275;-53
2023/07/12 02:56:24;;;;;;;;;;;26.10;61.20;;;;;;5060782;28;20419;-53
2023/07/12 02:58:49;;;;;;;;;;;26.10;61.20;;;;;;5064696;28;19917;-53
2023/07/12 03:01:15;;;;;;;;;;;26.10;61.10;;;;;;5059686;28;19919;-53
2023/07/12 03:03:40;;;;;;;;;;;26.20;61.00;;;;;;5057980;28;20004;-53
2023/07/12 03:06:06;;;;;;;;;;;26.30;60.50;;;;;;5059273;28;19912;-53
2023/07/12 03:08:32;;;;;;;;;;;26.40;60.10;;;;;;5056322;28;19912;-53
2023/07/12 03:10:58;;;;;;;;;;;26.40;60.10;;;;;;5053886;28;19920;-53
2023/07/12 03:13:23;;;;;;;;;;;26.50;60.00;;;;;;5055439;28;19960;-53
2023/07/12 03:15:49;;;;;;;;;;;26.50;60.10;;;;;;5066215;28;19955;-53
2023/07/12 03:18:14;;;;;;;;;;;26.60;59.70;;;;;;5056797;28;19913;-53
2023/07/12 03:20:40;;;;;;;;;;;26.50;60.00;;;;;;5064463;28;19919;-53
2023/07/12 03:23:05;;;;;;;;;;;26.40;59.80;;;;;;5057246;28;19917;-53
2023/07/12 03:25:30;;;;;;;;;;;26.30;60.30;;;;;;5065754;28;19917;-53
2023/07/12 03:27:56;;;;;;;;;;;26.20;61.10;;;;;;5056224;28;20197;-53
2023/07/12 03:30:21;;;;;;;;;;;26.10;61.30;;;;;;5071061;28;19991;-53
2023/07/12 03:32:47;;;;;;;;;;;26.10;61.30;;;;;;5070595;28;20349;-52
2023/07/12 03:35:12;;;;;;;;;;;26.20;61.00;;;;;;5065770;28;20312;-53
2023/07/12 03:37:38;;;;;;;;;;;26.20;60.80;;;;;;5069539;28;19919;-53
2023/07/12 03:40:04;;;;;;;;;;;26.30;60.70;;;;;;5062345;28;19924;-52
2023/07/12 03:42:29;;;;;;;;;;;26.30;60.60;;;;;;5057147;28;19916;-53
2023/07/12 03:44:54;;;;;;;;;;;26.00;61.50;;;;;;5061287;28;19920;-53
2023/07/12 03:47:20;;;;;;;;;;;25.90;62.20;;;;;;5057483;28;19917;-53
2023/07/12 03:49:45;;;;;;;;;;;25.90;61.90;;;;;;5070657;28;19919;-52
2023/07/12 03:52:11;;;;;;;;;;;26.10;61.90;;;;;;5060928;28;19974;-53
2023/07/12 03:54:36;;;;;;;;;;;26.20;61.50;;;;;;5061793;28;19916;-53
2023/07/12 03:57:02;;;;;;;;;;;26.20;61.20;;;;;;5060131;28;20034;-52
2023/07/12 03:59:27;;;;;;;;;;;26.30;61.20;;;;;;5072329;28;19919;-52
2023/07/12 04:01:53;;;;;;;;;;;26.30;60.00;;;;;;5061095;28;19943;-54
2023/07/12 04:04:18;;;;;;;;;;;26.40;61.60;;;;;;5054736;28;19932;-52
2023/07/12 04:06:44;;;;;;;;;;;26.40;60.10;;;;;;5052553;28;19912;-53
2023/07/12 04:09:09;;;;;;;;;;;26.50;60.30;;;;;;5053026;28;20288;-53
2023/07/12 04:11:37;;;;;;;;;;;26.50;59.90;;;;;;5052986;28;19913;-53
2023/07/12 04:14:02;;;;;;;;;;;26.50;60.40;;;;;;5053900;28;20270;-53
2023/07/12 04:16:28;;;;;;;;;;;26.50;60.00;;;;;;5054690;28;19924;-53
2023/07/12 04:18:54;;;;;;;;;;;26.50;60.30;;;;;;5065367;28;19959;-53
2023/07/12 04:21:19;;;;;;;;;;;26.50;60.10;;;;;;5063927;28;20289;-53
2023/07/12 04:23:48;;;;;;;;;;;26.50;60.10;;;;;;5073192;28;20320;-52
2023/07/12 04:26:14;;;;;;;;;;;26.50;60.40;;;;;;5067064;28;20010;-53
2023/07/12 04:28:39;;;;;;;;;;;26.50;60.40;;;;;;5073435;28;20020;-53
2023/07/12 04:31:06;;;;;;;;;;;26.50;60.60;;;;;;5060887;28;19913;-52
2023/07/12 04:33:31;;;;;;;;;;;26.50;60.70;;;;;;5055807;28;19928;-53
2023/07/12 04:35:57;;;;;;;;;;;26.40;60.70;;;;;;5053116;28;20007;-52
2023/07/12 04:38:22;;;;;;;;;;;26.30;60.80;;;;;;5053485;28;19917;-53
2023/07/12 04:40:52;;;;;;;;;;;26.40;61.30;;;;;;5060347;28;19940;-53
2023/07/12 04:43:17;;;;;;;;;;;26.30;61.50;;;;;;5056618;28;19928;-52
2023/07/12 04:45:44;;;;;;;;;;;26.20;62.10;;;;;;5054611;28;19921;-53
2023/07/12 04:48:09;;;;;;;;;;;26.10;62.50;;;;;;5067487;28;19927;-53
2023/07/12 04:50:36;;;;;;;;;;;26.10;62.60;;;;;;5063124;28;19912;-53
2023/07/12 04:53:02;;;;;;;;;;;26.10;62.40;;;;;;5051565;28;20373;-52
2023/07/12 04:55:28;;;;;;;;;;;26.20;62.80;;;;;;5059195;28;19931;-53
2023/07/12 04:57:54;;;;;;;;;;;26.10;63.00;;;;;;5056174;28;19917;-52
2023/07/12 05:00:19;;;;;;;;;;;26.00;63.20;;;;;;5062759;28;20446;-53
2023/07/12 05:02:46;;;;;;;;;;;26.00;63.30;;;;;;5055440;28;19909;-53
2023/07/12 05:05:12;;;;;;;;;;;26.00;63.30;;;;;;5064037;28;19950;-52
2023/07/12 05:07:38;;;;;;;;;;;26.00;63.20;;;;;;5058674;28;20292;-53
2023/07/12 05:10:03;;;;;;;;;;;25.90;63.40;;;;;;5064123;28;19923;-53
2023/07/12 05:12:29;;;;;;;;;;;25.90;63.40;;;;;;5064122;28;19916;-53
2023/07/12 05:14:55;;;;;;;;;;;25.80;63.80;;;;;;5060705;28;19963;-53
2023/07/12 05:17:21;;;;;;;;;;;25.80;63.70;;;;;;5056462;28;19959;-53
2023/07/12 05:19:46;;;;;;;;;;;25.80;63.70;;;;;;5052897;28;20000;-54
2023/07/12 05:22:11;;;;;;;;;;;25.80;63.40;;;;;;5061825;28;20331;-53
2023/07/12 05:24:37;;;;;;;;;;;25.80;63.40;;;;;;5065232;28;20413;-53
2023/07/12 05:27:03;;;;;;;;;;;25.70;63.50;;;;;;5060839;28;20337;-53
2023/07/12 05:29:28;;;;;;;;;;;25.70;63.80;;;;;;5055246;28;20319;-53
2023/07/12 05:31:54;;;;;;;;;;;25.60;63.80;;;;;;5069019;28;19948;-53
2023/07/12 05:34:19;;;;;;;;;;;25.50;64.00;;;;;;5055993;28;19925;-53
2023/07/12 05:36:45;;;;;;;;;;;25.50;64.30;;;;;;5062611;28;19924;-53
2023/07/12 05:39:10;;;;;;;;;;;25.50;64.30;;;;;;5071326;28;19916;-53
2023/07/12 05:41:36;;;;;;;;;;;25.60;64.30;;;;;;5066143;28;20387;-53
2023/07/12 05:44:01;;;;;;;;;;;25.60;64.20;;;;;;5067788;28;19912;-52
2023/07/12 05:46:27;;;;;;;;;;;25.50;64.60;;;;;;5066900;28;19925;-54
2023/07/12 05:48:52;;;;;;;;;;;25.50;64.60;;;;;;5053885;28;19912;-54
2023/07/12 05:51:18;;;;;;;;;;;25.50;64.50;;;;;;5050814;28;19916;-52
2023/07/12 05:53:43;;;;;;;;;;;25.50;64.60;;;;;;5043274;28;20442;-53
2023/07/12 05:56:09;;;;;;;;;;;25.40;64.70;;;;;;5057787;28;20439;-53
2023/07/12 05:58:35;;;;;;;;;;;25.50;64.80;;;;;;5058127;28;20305;-52
2023/07/12 06:01:01;;;;;;;;;;;25.40;64.70;;;;;;5055617;28;19912;-53
2023/07/12 06:03:27;;;;;;;;;;;25.50;64.60;;;;;;5053240;28;19967;-52
2023/07/12 06:05:52;;;;;;;;;;;25.50;64.60;;;;;;5054470;28;19948;-53
2023/07/12 06:08:18;;;;;;;;;;;25.50;64.50;;;;;;5051357;28;20000;-52
2023/07/12 06:10:44;;;;;;;;;;;25.50;64.30;;;;;;5053385;28;19947;-53
2023/07/12 06:13:09;;;;;;;;;;;25.50;64.20;;;;;;5071419;28;19916;-53
2023/07/12 06:15:35;;;;;;;;;;;25.50;64.10;;;;;;5060734;28;19923;-53
2023/07/12 06:18:00;;;;;;;;;;;25.60;64.10;;;;;;5050288;28;20008;-52
2023/07/12 06:20:26;;;;;;;;;;;25.60;64.00;;;;;;5051985;28;19909;-53
2023/07/12 06:22:51;;;;;;;;;;;25.60;63.90;;;;;;5050429;28;19913;-53
2023/07/12 06:25:17;;;;;;;;;;;25.50;63.90;;;;;;5052017;28;19916;-53
2023/07/12 06:27:42;;;;;;;;;;;25.50;64.30;;;;;;5050999;28;19913;-53
2023/07/12 06:30:08;;;;;;;;;;;25.50;64.10;;;;;;5056570;28;19955;-53
2023/07/12 06:32:33;;;;;;;;;;;25.50;63.80;;;;;;5061507;28;19917;-52
2023/07/12 06:34:58;;;;;;;;;;;25.50;63.70;;;;;;5059419;28;19931;-53
2023/07/12 06:37:24;;;;;;;;;;;25.50;64.10;;;;;;5056704;28;20535;-52
2023/07/12 06:39:49;;;;;;;;;;;25.50;63.50;;;;;;5054254;28;20372;-53
2023/07/12 06:42:15;;;;;;;;;;;25.50;63.50;;;;;;5054975;28;20364;-54
2023/07/12 06:44:40;;;;;;;;;;;25.60;63.40;;;;;;5059766;28;20293;-54
2023/07/12 06:47:06;;;;;;;;;;;25.60;63.20;;;;;;5059158;28;19921;-53
2023/07/12 06:49:32;;;;;;;;;;;25.60;63.10;;;;;;5074592;28;19913;-53
2023/07/12 06:51:58;;;;;;;;;;;25.60;63.00;;;;;;5058553;28;19942;-53
2023/07/12 06:54:23;;;;;;;;;;;25.60;62.90;;;;;;5060783;28;19913;-53
2023/07/12 06:56:49;;;;;;;;;;;25.60;62.90;;;;;;5069160;28;20284;-53
2023/07/12 06:59:14;;;;;;;;;;;25.60;62.90;;;;;;5060261;28;20288;-53
2023/07/12 07:01:39;;;;;;;;;;;25.60;63.00;;;;;;5062963;28;19968;-52
2023/07/12 07:04:05;;;;;;;;;;;25.60;63.00;;;;;;5062326;28;19913;-53
2023/07/12 07:06:30;;;;;;;;;;;25.60;62.80;;;;;;5057174;28;19917;-53
2023/07/12 07:08:56;;;;;;;;;;;25.70;62.80;;;;;;5049356;28;19920;-54
2023/07/12 07:11:21;;;;;;;;;;;25.70;62.80;;;;;;5057588;28;20397;-53
2023/07/12 07:13:50;;;;;;;;;;;25.60;62.80;;;;;;5058255;28;19932;-54
2023/07/12 07:16:16;;;;;;;;;;;25.60;62.90;;;;;;5064452;28;20011;-53
2023/07/12 07:18:41;;;;;;;;;;;25.60;62.80;;;;;;5052988;28;20062;-53
2023/07/12 07:21:07;;;;;;;;;;;25.60;62.80;;;;;;5058518;28;19927;-53
2023/07/12 07:23:33;;;;;;;;;;;25.50;62.50;;;;;;5053626;28;20374;-53
2023/07/12 07:26:02;;;;;;;;;;;25.50;62.20;;;;;;5059855;28;19920;-53
2023/07/12 07:28:28;;;;;;;;;;;25.50;62.20;;;;;;5053942;28;19924;-53
2023/07/12 07:30:57;;;;;;;;;;;25.50;61.90;;;;;;5054161;28;20353;-53
2023/07/12 07:33:22;;;;;;;;;;;25.50;61.80;;;;;;5055314;28;19999;-53
2023/07/12 07:35:47;;;;;;;;;;;25.40;61.50;;;;;;5052328;28;20008;-53
2023/07/12 07:38:13;;;;;;;;;;;25.40;61.30;;;;;;5058127;28;19934;-54
2023/07/12 07:40:39;;;;;;;;;;;25.40;60.60;;;;;;5058786;28;19913;-53
2023/07/12 07:43:04;;;;;;;;;;;25.30;59.70;;;;;;5060318;28;20364;-53
2023/07/12 07:45:30;;;;;;;;;;;25.30;59.30;;;;;;5053500;28;19921;-53
2023/07/12 07:47:55;;;;;;;;;;;25.30;59.00;;;;;;5060164;28;19940;-53
2023/07/12 07:50:21;;;;;;;;;;;25.20;58.80;;;;;;5053047;28;19917;-53
2023/07/12 07:52:46;;;;;;;;;;;25.30;58.70;;;;;;5051365;28;19916;-54
2023/07/12 07:55:12;;;;;;;;;;;25.30;58.50;;;;;;5052040;28;19916;-53
2023/07/12 07:57:37;;;;;;;;;;;25.40;58.30;;;;;;5053169;28;19917;-54
2023/07/12 08:00:06;;;;;;;;;;;25.40;58.40;;;;;;5053408;28;19916;-52
2023/07/12 08:02:31;;;;;;;;;;;25.40;58.40;;;;;;5057071;28;19936;-54
2023/07/12 08:04:57;;;;;;;;;;;25.40;58.50;;;;;;5057869;28;19920;-53
2023/07/12 08:07:23;;;;;;;;;;;25.40;58.40;;;;;;5061683;28;19912;-53
2023/07/12 08:09:49;;;;;;;;;;;25.50;58.30;;;;;;5056592;28;19917;-54
2023/07/12 08:12:15;;;;;;;;;;;25.50;58.20;;;;;;5055431;28;19916;-54
2023/07/12 08:14:40;;;;;;;;;;;25.60;58.20;;;;;;5055050;28;19978;-54
2023/07/12 08:17:06;;;;;;;;;;;25.50;58.30;;;;;;5057024;28;19967;-53
2023/07/12 08:19:31;;;;;;;;;;;25.40;58.30;;;;;;5060156;28;19939;-53
2023/07/12 08:21:57;;;;;;;;;;;25.40;58.40;;;;;;5072288;28;19957;-53
2023/07/12 08:24:22;;;;;;;;;;;25.40;58.40;;;;;;5056563;28;19955;-53
2023/07/12 08:26:47;;;;;;;;;;;25.40;58.60;;;;;;5052527;28;20039;-53
2023/07/12 08:29:13;;;;;;;;;;;25.30;58.70;;;;;;5054167;28;20265;-53
2023/07/12 08:31:38;;;;;;;;;;;25.40;58.40;;;;;;5052336;28;20300;-53
2023/07/12 08:34:04;;;;;;;;;;;25.40;58.40;;;;;;5056746;28;19912;-54
2023/07/12 08:36:29;;;;;;;;;;;25.30;58.30;;;;;;5050553;28;19928;-54
2023/07/12 08:38:55;;;;;;;;;;;25.30;58.30;;;;;;5055773;28;19942;-53
2023/07/12 08:41:21;;;;;;;;;;;25.30;58.20;;;;;;5053556;28;20543;-54
2023/07/12 08:43:47;;;;;;;;;;;25.30;58.80;;;;;;5072050;28;19909;-53
2023/07/12 08:46:16;;;;;;;;;;;25.30;58.20;;;;;;5051030;28;19989;-54
2023/07/12 08:48:41;;;;;;;;;;;25.40;58.00;;;;;;5059660;28;20253;-54
2023/07/12 08:51:11;;;;;;;;;;;25.30;57.90;;;;;;5054112;28;19920;-54
2023/07/12 08:53:39;;;;;;;;;;;25.40;57.90;;;;;;5048654;28;19913;-54
2023/07/12 08:56:07;;;;;;;;;;;25.40;57.90;;;;;;5049311;28;19989;-54
2023/07/12 08:58:34;;;;;;;;;;;25.30;57.80;;;;;;5067866;28;19913;-54
2023/07/12 09:01:07;;;;;;;;;;;25.30;58.00;;;;;;5058191;28;19923;-54
2023/07/12 09:03:32;;;;;;;;;;;25.30;58.00;;;;;;5051789;28;19913;-54
2023/07/12 09:05:58;;;;;;;;;;;25.40;57.80;;;;;;5052872;28;19913;-54
2023/07/12 09:08:29;;;;;;;;;;;25.40;57.60;;;;;;5059943;28;20091;-53
2023/07/12 09:10:58;;;;;;;;;;;25.50;57.60;;;;;;5051617;28;19913;-54
2023/07/12 09:13:30;;;;;;;;;;;25.50;57.50;;;;;;5049749;28;20023;-54
2023/07/12 09:15:56;;;;;;;;;;;25.40;57.50;;;;;;5054842;28;19917;-53
2023/07/12 09:18:29;;;;;;;;;;;25.50;57.40;;;;;;5051152;28;19912;-53
2023/07/12 09:20:55;;;;;;;;;;;25.50;57.50;;;;;;5051394;28;19912;-53
2023/07/12 09:23:21;;;;;;;;;;;25.50;57.30;;;;;;5053563;28;19962;-53
2023/07/12 09:25:50;;;;;;;;;;;25.50;57.10;;;;;;5054481;28;19947;-53
2023/07/12 09:28:15;;;;;;;;;;;25.50;57.00;;;;;;5057340;28;19923;-54
2023/07/12 09:30:43;;;;;;;;;;;25.40;57.00;;;;;;5051881;28;20570;-53
2023/07/12 09:33:16;;;;;;;;;;;25.50;57.00;;;;;;5053788;28;19955;-54
2023/07/12 09:35:45;;;;;;;;;;;25.50;56.80;;;;;;5053957;28;19912;-53
2023/07/12 09:38:12;;;;;;;;;;;25.50;56.80;;;;;;5059070;28;19909;-53
2023/07/12 09:40:38;;;;;;;;;;;25.40;56.80;;;;;;5058485;28;20007;-53
2023/07/12 09:43:04;;;;;;;;;;;25.40;56.80;;;;;;5058360;28;20710;-53
2023/07/12 09:45:30;;;;;;;;;;;25.40;56.90;;;;;;5051926;28;20023;-53
2023/07/12 09:48:34;;;;;;;;;;;25.40;56.60;;;;;;5049305;28;19913;-53
2023/07/12 09:51:04;;;;;;;;;;;25.40;56.40;;;;;;5019905;28;19917;-53
2023/07/12 09:53:37;;;;;;;;;;;25.50;56.40;;;;;;5027660;28;20035;-53
2023/07/12 09:56:08;;;;;;;;;;;25.50;56.20;;;;;;5038276;28;19920;-53
2023/07/12 09:58:42;;;;;;;;;;;25.50;56.10;;;;;;5058486;28;19919;-54
2023/07/12 10:01:10;;;;;;;;;;;25.60;56.10;;;;;;5050744;28;19920;-53
2023/07/12 10:03:36;;;;;;;;;;;25.60;55.90;;;;;;5053619;28;19912;-54
2023/07/12 10:06:04;;;;;;;;;;;25.70;55.90;;;;;;5052498;28;19916;-53
2023/07/12 10:08:39;;;;;;;;;;;25.70;55.80;;;;;;5049983;28;19917;-53
2023/07/12 10:11:07;;;;;;;;;;;25.70;55.70;;;;;;5066386;28;20027;-53
2023/07/12 10:13:35;;;;;;;;;;;25.70;55.70;;;;;;5051497;28;19912;-53
2023/07/12 10:16:00;;;;;;;;;;;25.60;55.80;;;;;;5071625;28;19916;-53
2023/07/12 10:18:27;;;;;;;;;;;25.60;55.70;;;;;;5055636;28;19977;-53
2023/07/12 10:20:52;;;;;;;;;;;25.60;55.50;;;;;;5054599;28;20372;-53
2023/07/12 10:23:18;;;;;;;;;;;25.60;55.50;;;;;;5056110;28;19970;-53
2023/07/12 10:25:48;;;;;;;;;;;25.70;55.60;;;;;;5051815;28;19919;-53
2023/07/12 10:28:16;;;;;;;;;;;25.60;55.60;;;;;;5065127;28;19921;-53
2023/07/12 10:30:42;;;;;;;;;;;25.60;55.50;;;;;;5059531;28;19924;-53
2023/07/12 10:33:16;;;;;;;;;;;25.60;55.30;;;;;;5059044;28;19921;-53
2023/07/12 10:35:45;;;;;;;;;;;25.60;55.30;;;;;;5058116;28;19912;-53
2023/07/12 10:38:12;;;;;;;;;;;25.60;55.30;;;;;;5053814;28;19957;-52
2023/07/12 10:40:43;;;;;;;;;;;25.60;55.10;;;;;;5056899;28;19917;-53
2023/07/12 10:43:12;;;;;;;;;;;25.60;55.10;;;;;;5060405;28;19924;-53
2023/07/12 10:45:37;;;;;;;;;;;25.60;55.00;;;;;;5050245;28;19940;-53
2023/07/12 10:48:03;;;;;;;;;;;25.60;54.70;;;;;;5059182;28;19980;-54
2023/07/12 10:50:43;;;;;;;;;;;25.60;54.30;;;;;;5046396;28;20389;-53
2023/07/12 10:53:20;;;;;;;;;;;25.70;54.30;;;;;;5055880;28;19959;-52
2023/07/12 10:56:06;;;;;;;;;;;25.60;54.10;;;;;;5045826;28;19920;-53
2023/07/12 10:58:41;;;;;;;;;;;25.60;54.10;;;;;;5059562;28;20312;-52
2023/07/12 11:01:12;;;;;;;;;;;25.60;54.20;;;;;;5055570;28;19936;-52
2023/07/12 11:03:41;;;;;;;;;;;25.60;54.10;;;;;;5061183;28;19920;-52
2023/07/12 11:06:25;;;;;;;;;;;25.60;53.80;;;;;;5055108;28;19967;-53
2023/07/12 11:09:00;;;;;;;;;;;25.70;53.90;;;;;;5062874;28;19923;-53
2023/07/12 11:11:30;;;;;;;;;;;25.70;53.70;;;;;;5059638;28;19999;-53
2023/07/12 11:14:12;;;;;;;;;;;25.70;53.60;;;;;;5054355;28;20049;-54
2023/07/12 11:16:45;;;;;;;;;;;25.80;53.50;;;;;;5061873;28;19935;-53
2023/07/12 11:19:30;;;;;;;;;;;25.80;53.30;;;;;;5049869;28;19992;-53
2023/07/12 11:21:55;;;;;;;;;;;25.80;53.20;;;;;;5053294;28;19913;-53
2023/07/12 11:24:27;;;;;;;;;;;25.80;53.20;;;;;;5053045;28;19955;-54
2023/07/12 11:26:59;;;;;;;;;;;25.80;53.00;;;;;;5059570;28;19947;-54
2023/07/12 11:29:24;;;;;;;;;;;25.90;53.00;;;;;;5053389;28;19936;-54
2023/07/12 11:31:57;;;;;;;;;;;25.90;52.90;;;;;;5064484;28;20365;-54
2023/07/12 11:34:23;;;;;;;;;;;26.00;52.90;;;;;;5056519;28;19908;-53
2023/07/12 11:36:51;;;;;;;;;;;26.00;52.70;;;;;;5051682;28;20010;-53
2023/07/12 11:39:17;;;;;;;;;;;26.00;52.70;;;;;;5060088;28;19996;-53
2023/07/12 11:41:53;;;;;;;;;;;26.00;52.50;;;;;;5054538;28;19916;-53
2023/07/12 11:44:18;;;;;;;;;;;26.00;52.80;;;;;;5058724;28;20387;-53
2023/07/12 11:46:43;;;;;;;;;;;26.10;52.70;;;;;;5052827;28;19924;-53
2023/07/12 11:49:09;;;;;;;;;;;26.10;52.80;;;;;;5059461;28;19921;-53
2023/07/12 11:51:35;;;;;;;;;;;26.10;52.60;;;;;;5052516;28;19917;-54
2023/07/12 11:54:01;;;;;;;;;;;26.00;52.50;;;;;;5051888;28;19912;-53
2023/07/12 11:56:26;;;;;;;;;;;26.00;52.50;;;;;;5061854;28;19920;-53
2023/07/12 11:58:52;;;;;;;;;;;26.10;52.70;;;;;;5054116;28;19916;-54
2023/07/12 12:01:18;;;;;;;;;;;26.00;52.60;;;;;;5054144;28;19916;-52
2023/07/12 12:03:46;;;;;;;;;;;26.10;52.60;;;;;;5052886;28;20373;-53
2023/07/12 12:06:12;;;;;;;;;;;26.10;52.60;;;;;;5053207;28;19951;-53
2023/07/12 12:08:38;;;;;;;;;;;26.10;52.30;;;;;;5053361;28;19956;-53
2023/07/12 12:11:03;;;;;;;;;;;26.10;52.40;;;;;;5050405;28;20428;-53
2023/07/12 12:13:30;;;;;;;;;;;26.10;52.70;;;;;;5052366;28;19921;-53
2023/07/12 12:16:04;;;;;;;;;;;26.20;52.20;;;;;;5060379;28;19924;-54
2023/07/12 12:18:30;;;;;;;;;;;26.20;52.30;;;;;;5060798;28;19916;-52
2023/07/12 12:20:56;;;;;;;;;;;26.20;52.30;;;;;;5054711;28;19946;-53
2023/07/12 12:23:38;;;;;;;;;;;26.20;52.20;;;;;;5056863;28;19920;-53
2023/07/12 12:26:30;;;;;;;;;;;26.20;52.20;;;;;;5053139;28;19909;-53
2023/07/12 12:29:05;;;;;;;;;;;26.20;52.10;;;;;;5049077;28;19917;-53
2023/07/12 12:31:31;;;;;;;;;;;26.20;51.80;;;;;;5052480;28;20005;-53
2023/07/12 12:34:03;;;;;;;;;;;26.20;51.60;;;;;;5056438;28;19951;-53
2023/07/12 12:36:29;;;;;;;;;;;26.20;51.60;;;;;;5051304;28;19976;-53
2023/07/12 12:38:59;;;;;;;;;;;26.20;51.70;;;;;;5052000;28;20725;-54
2023/07/12 12:41:30;;;;;;;;;;;26.20;51.50;;;;;;5061060;28;19916;-53
2023/07/12 12:43:56;;;;;;;;;;;26.20;51.50;;;;;;5053293;28;19979;-54
2023/07/12 12:46:22;;;;;;;;;;;26.20;51.40;;;;;;5062856;28;19932;-52
2023/07/12 12:48:51;;;;;;;;;;;26.20;51.50;;;;;;5054859;28;20012;-54
2023/07/12 12:51:17;;;;;;;;;;;26.20;51.30;;;;;;5055306;28;19912;-53
2023/07/12 12:53:43;;;;;;;;;;;26.30;51.20;;;;;;5054351;28;19913;-53
2023/07/12 12:56:10;;;;;;;;;;;26.20;51.20;;;;;;5051257;28;20003;-54
2023/07/12 12:58:35;;;;;;;;;;;26.30;51.10;;;;;;5053688;28;19913;-53
2023/07/12 13:01:01;;;;;;;;;;;26.20;51.00;;;;;;5050223;28;19939;-53
2023/07/12 13:03:26;;;;;;;;;;;26.10;51.30;;;;;;5052299;28;19975;-53
2023/07/12 13:05:52;;;;;;;;;;;26.00;51.30;;;;;;5057579;28;19920;-54
2023/07/12 13:08:18;;;;;;;;;;;26.00;51.50;;;;;;5054325;28;19912;-54
2023/07/12 13:10:44;;;;;;;;;;;25.90;51.50;;;;;;5059448;28;19962;-53
2023/07/12 13:13:19;;;;;;;;;;;25.90;51.80;;;;;;5054046;28;20382;-53
2023/07/12 13:15:44;;;;;;;;;;;25.90;51.60;;;;;;5053325;28;19999;-54
2023/07/12 13:18:11;;;;;;;;;;;26.00;51.70;;;;;;5051195;28;19999;-54
2023/07/12 13:20:36;;;;;;;;;;;26.00;51.60;;;;;;5052066;28;19920;-54
2023/07/12 13:23:03;;;;;;;;;;;26.10;51.90;;;;;;5055917;28;19913;-53
2023/07/12 13:25:29;;;;;;;;;;;26.00;52.20;;;;;;5051396;28;19952;-53
2023/07/12 13:27:55;;;;;;;;;;;25.90;53.00;;;;;;5050746;28;19917;-54
2023/07/12 13:30:21;;;;;;;;;;;25.90;53.30;;;;;;5050474;28;19921;-54
2023/07/12 13:32:46;;;;;;;;;;;25.90;53.70;;;;;;5057596;28;20382;-55
2023/07/12 13:35:15;;;;;;;;;;;25.90;53.70;;;;;;5055103;28;19917;-54
2023/07/12 13:37:41;;;;;;;;;;;26.00;54.10;;;;;;5059713;28;20292;-54
2023/07/12 13:40:09;;;;;;;;;;;26.00;54.30;;;;;;5045886;28;19928;-53
2023/07/12 13:42:35;;;;;;;;;;;26.00;54.30;;;;;;5040621;28;19916;-53
2023/07/12 13:45:01;;;;;;;;;;;26.10;54.60;;;;;;5054369;28;19980;-53
2023/07/12 13:47:27;;;;;;;;;;;26.10;54.80;;;;;;5055562;28;19926;-53
2023/07/12 13:49:53;;;;;;;;;;;26.10;54.90;;;;;;5051618;28;19948;-53
2023/07/12 13:52:20;;;;;;;;;;;26.10;55.30;;;;;;5052817;28;19917;-54
2023/07/12 13:54:46;;;;;;;;;;;26.10;55.70;;;;;;5052344;28;19921;-54
2023/07/12 13:57:12;;;;;;;;;;;26.10;55.70;;;;;;5058504;28;19970;-53
2023/07/12 13:59:39;;;;;;;;;;;26.10;55.80;;;;;;5054315;28;19913;-54
2023/07/12 14:02:30;;;;;;;;;;;26.10;56.20;;;;;;5056249;28;20003;-53
2023/07/12 14:04:58;;;;;;;;;;;26.10;56.50;;;;;;5052633;28;19923;-53
2023/07/12 14:07:27;;;;;;;;;;;26.00;56.50;;;;;;5052454;28;20011;-54
2023/07/12 14:09:53;;;;;;;;;;;26.10;56.50;;;;;;5048693;28;19920;-53
2023/07/12 14:12:18;;;;;;;;;;;26.10;56.60;;;;;;5053995;28;19912;-53
2023/07/12 14:14:44;;;;;;;;;;;26.10;56.30;;;;;;5051827;28;19916;-54